createdAt,value
2018-02-24T00:00:22.728Z,22.76
2018-02-24T00:02:51.048Z,22.75
2018-02-24T00:05:19.330Z,22.75
2018-02-24T00:07:47.625Z,22.76
2018-02-24T00:10:15.910Z,22.75
2018-02-24T00:12:44.212Z,22.76
2018-02-24T00:15:12.511Z,22.76
2018-02-24T00:17:40.803Z,22.76
2018-02-24T00:20:09.135Z,22.76
2018-02-24T00:22:45.243Z,22.76
2018-02-24T00:25:13.554Z,22.75
2018-02-24T00:27:41.847Z,22.75
2018-02-24T00:30:10.124Z,22.75
2018-02-24T00:32:38.429Z,22.75
2018-02-24T00:35:06.712Z,22.75
2018-02-24T00:37:35.002Z,22.75
2018-02-24T00:40:03.309Z,22.76
2018-02-24T00:42:32.189Z,22.76
2018-02-24T00:45:00.475Z,22.76
2018-02-24T00:47:28.771Z,22.75
2018-02-24T00:49:56.905Z,22.75
2018-02-24T00:52:25.212Z,22.75
2018-02-24T00:54:53.503Z,22.75
2018-02-24T00:57:21.594Z,22.75
2018-02-24T00:59:49.870Z,22.75
2018-02-24T01:02:17.999Z,22.75
2018-02-24T01:04:46.293Z,22.74
2018-02-24T01:07:15.390Z,22.74
2018-02-24T01:09:43.670Z,22.75
2018-02-24T01:12:11.701Z,22.77
2018-02-24T01:14:39.989Z,22.77
2018-02-24T01:17:08.285Z,22.78
2018-02-24T01:19:36.565Z,22.79
2018-02-24T01:22:04.885Z,22.79
2018-02-24T01:24:33.188Z,22.80
2018-02-24T01:27:01.535Z,22.81
2018-02-24T01:29:29.837Z,22.81
2018-02-24T01:31:58.141Z,22.81
2018-02-24T01:34:26.430Z,22.82
2018-02-24T01:36:54.738Z,22.83
2018-02-24T01:39:23.041Z,22.83
2018-02-24T01:41:51.346Z,22.84
2018-02-24T01:44:19.653Z,22.85
2018-02-24T01:46:47.966Z,22.85
2018-02-24T01:49:16.271Z,22.85
2018-02-24T01:51:44.589Z,22.86
2018-02-24T01:54:12.875Z,22.86
2018-02-24T01:56:41.187Z,22.86
2018-02-24T01:59:09.474Z,22.88
2018-02-24T02:01:37.771Z,22.87
2018-02-24T02:04:06.047Z,22.88
2018-02-24T02:06:34.406Z,22.88
2018-02-24T02:09:02.817Z,22.87
2018-02-24T02:11:31.099Z,22.88
2018-02-24T02:13:59.379Z,22.88
2018-02-24T02:16:27.663Z,22.87
2018-02-24T02:18:55.938Z,22.87
2018-02-24T02:21:24.218Z,22.86
2018-02-24T02:23:52.517Z,22.86
2018-02-24T02:26:20.790Z,22.86
2018-02-24T02:28:49.087Z,22.85
2018-02-24T02:31:17.399Z,22.84
2018-02-24T02:33:45.872Z,22.83
2018-02-24T02:36:14.194Z,22.83
2018-02-24T02:38:42.475Z,22.83
2018-02-24T02:41:10.793Z,22.82
2018-02-24T02:43:39.101Z,22.82
2018-02-24T02:46:07.461Z,22.82
2018-02-24T02:48:35.741Z,22.82
2018-02-24T02:51:04.046Z,22.81
2018-02-24T02:53:32.327Z,22.83
2018-02-24T02:56:00.619Z,22.84
2018-02-24T02:58:28.919Z,22.85
2018-02-24T03:00:57.217Z,22.85
2018-02-24T03:03:25.512Z,22.86
2018-02-24T03:05:53.842Z,22.87
2018-02-24T03:08:22.149Z,22.88
2018-02-24T03:10:50.646Z,22.89
2018-02-24T03:13:18.926Z,22.89
2018-02-24T03:15:47.210Z,22.90
2018-02-24T03:18:15.489Z,22.90
2018-02-24T03:20:43.794Z,22.90
2018-02-24T03:23:12.090Z,22.91
2018-02-24T03:25:40.377Z,22.90
2018-02-24T03:28:08.670Z,22.91
2018-02-24T03:30:36.942Z,22.90
2018-02-24T03:33:05.221Z,22.89
2018-02-24T03:35:33.551Z,22.89
2018-02-24T03:38:01.838Z,22.87
2018-02-24T03:40:30.109Z,22.87
2018-02-24T03:42:58.227Z,22.86
2018-02-24T03:45:26.338Z,22.85
2018-02-24T03:47:54.429Z,22.84
2018-02-24T03:50:22.522Z,22.84
2018-02-24T03:52:50.626Z,22.83
2018-02-24T03:55:18.741Z,22.83
2018-02-24T03:57:47.079Z,22.83
2018-02-24T04:00:15.359Z,22.84
2018-02-24T04:02:43.637Z,22.85
2018-02-24T04:05:11.755Z,22.87
2018-02-24T04:07:40.056Z,22.89
2018-02-24T04:10:08.348Z,22.90
2018-02-24T04:12:36.646Z,22.94
2018-02-24T04:15:04.946Z,22.94
2018-02-24T04:17:33.228Z,22.96
2018-02-24T04:20:01.553Z,22.97
2018-02-24T04:22:29.850Z,22.97
2018-02-24T04:24:58.167Z,22.97
2018-02-24T04:27:26.459Z,22.97
2018-02-24T04:29:54.734Z,22.97
2018-02-24T04:32:23.023Z,22.97
2018-02-24T04:34:51.335Z,22.97
2018-02-24T04:37:19.668Z,22.96
2018-02-24T04:39:47.950Z,22.95
2018-02-24T04:42:16.226Z,22.94
2018-02-24T04:44:44.503Z,22.94
2018-02-24T04:47:12.775Z,22.94
2018-02-24T04:49:41.058Z,22.92
2018-02-24T04:52:09.354Z,22.91
2018-02-24T04:54:37.656Z,22.89
2018-02-24T04:57:05.754Z,22.88
2018-02-24T04:59:34.043Z,22.87
2018-02-24T05:02:02.328Z,22.87
2018-02-24T05:04:30.609Z,22.87
2018-02-24T05:06:59.066Z,22.87
2018-02-24T05:09:27.350Z,22.87
2018-02-24T05:11:55.630Z,22.88
2018-02-24T05:14:23.906Z,22.91
2018-02-24T05:16:52.183Z,22.92
2018-02-24T05:19:20.494Z,22.93
2018-02-24T05:21:48.774Z,22.95
2018-02-24T05:24:17.051Z,22.95
2018-02-24T05:26:45.328Z,22.96
2018-02-24T05:29:13.616Z,22.96
2018-02-24T05:31:41.967Z,22.94
2018-02-24T05:34:10.489Z,22.94
2018-02-24T05:36:38.806Z,22.94
2018-02-24T05:39:07.090Z,22.92
2018-02-24T05:41:35.369Z,22.91
2018-02-24T05:44:03.683Z,22.89
2018-02-24T05:46:32.061Z,22.87
2018-02-24T05:49:00.372Z,22.87
2018-02-24T05:51:28.686Z,22.86
2018-02-24T05:53:56.985Z,22.85
2018-02-24T05:56:25.318Z,22.84
2018-02-24T05:58:53.598Z,22.84
2018-02-24T06:01:21.874Z,22.84
2018-02-24T06:03:50.166Z,22.84
2018-02-24T06:06:18.438Z,22.84
2018-02-24T06:08:46.760Z,22.86
2018-02-24T06:11:15.050Z,22.88
2018-02-24T06:13:43.553Z,22.90
2018-02-24T06:16:11.842Z,22.93
2018-02-24T06:18:40.138Z,22.95
2018-02-24T06:21:08.445Z,22.96
2018-02-24T06:23:36.738Z,22.98
2018-02-24T06:26:04.843Z,22.97
2018-02-24T06:28:33.151Z,22.99
2018-02-24T06:31:01.250Z,22.99
2018-02-24T06:33:29.526Z,22.99
2018-02-24T06:35:57.815Z,23.00
2018-02-24T06:38:26.124Z,22.99
2018-02-24T06:40:54.236Z,23.00
2018-02-24T06:43:22.552Z,23.00
2018-02-24T06:45:50.879Z,23.01
2018-02-24T06:48:19.174Z,23.01
2018-02-24T06:50:47.514Z,23.00
2018-02-24T06:53:15.958Z,22.94
2018-02-24T06:55:45.756Z,22.92
2018-02-24T06:58:14.901Z,22.94
2018-02-24T07:00:43.343Z,22.94
2018-02-24T07:03:11.668Z,22.97
2018-02-24T07:05:39.955Z,22.98
2018-02-24T07:08:08.243Z,22.97
2018-02-24T07:10:36.527Z,22.96
2018-02-24T07:13:04.585Z,22.97
2018-02-24T07:15:33.006Z,23.00
2018-02-24T07:18:01.316Z,23.03
2018-02-24T07:20:29.626Z,23.02
2018-02-24T07:22:57.911Z,23.03
2018-02-24T07:25:26.236Z,23.04
2018-02-24T07:27:54.370Z,23.05
2018-02-24T07:30:22.465Z,23.08
2018-02-24T07:32:50.812Z,23.09
2018-02-24T07:35:19.100Z,23.09
2018-02-24T07:37:47.405Z,23.09
2018-02-24T07:40:15.690Z,23.11
2018-02-24T07:42:44.000Z,23.15
2018-02-24T07:45:12.309Z,23.18
2018-02-24T07:47:40.619Z,23.20
2018-02-24T07:50:08.943Z,23.21
2018-02-24T07:52:37.237Z,23.22
2018-02-24T07:57:48.281Z,23.24
2018-02-24T08:00:16.570Z,23.26
2018-02-24T08:02:44.851Z,23.26
2018-02-24T08:05:13.183Z,23.30
2018-02-24T08:07:41.469Z,23.33
2018-02-24T08:10:09.760Z,23.37
2018-02-24T08:12:38.110Z,23.42
2018-02-24T08:15:06.403Z,23.46
2018-02-24T08:17:34.747Z,23.50
2018-02-24T08:20:03.170Z,23.52
2018-02-24T08:22:31.450Z,23.54
2018-02-24T08:24:59.785Z,23.54
2018-02-24T08:27:28.096Z,23.54
2018-02-24T08:29:56.407Z,23.54
2018-02-24T08:32:24.704Z,23.54
2018-02-24T08:34:53.017Z,23.53
2018-02-24T08:37:21.364Z,23.53
2018-02-24T08:39:49.660Z,23.53
2018-02-24T08:42:17.949Z,23.53
2018-02-24T08:44:46.259Z,23.52
2018-02-24T08:47:14.620Z,23.52
2018-02-24T08:49:42.901Z,23.51
2018-02-24T08:52:11.226Z,23.51
2018-02-24T08:54:39.534Z,23.51
2018-02-24T08:57:07.986Z,23.50
2018-02-24T08:59:36.293Z,23.51
2018-02-24T09:02:04.606Z,23.51
2018-02-24T09:04:32.898Z,23.51
2018-02-24T09:07:01.197Z,23.50
2018-02-24T09:09:29.482Z,23.51
2018-02-24T09:11:57.780Z,23.51
2018-02-24T09:14:26.070Z,23.51
2018-02-24T09:16:54.186Z,23.51
2018-02-24T09:19:22.473Z,23.50
2018-02-24T09:21:50.799Z,23.51
2018-02-24T09:24:19.174Z,23.51
2018-02-24T09:26:47.486Z,23.51
2018-02-24T09:29:15.896Z,23.50
2018-02-24T09:31:44.484Z,23.50
2018-02-24T09:34:12.807Z,23.49
2018-02-24T09:36:41.110Z,23.49
2018-02-24T09:39:09.219Z,23.49
2018-02-24T09:41:37.510Z,23.49
2018-02-24T09:44:05.803Z,23.49
2018-02-24T09:46:34.093Z,23.48
2018-02-24T09:49:02.399Z,23.47
2018-02-24T09:51:30.742Z,23.47
2018-02-24T09:53:59.034Z,23.46
2018-02-24T09:56:27.320Z,23.46
2018-02-24T09:58:55.626Z,23.45
2018-02-24T10:01:23.930Z,23.45
2018-02-24T10:03:52.233Z,23.45
2018-02-24T10:06:20.541Z,23.45
2018-02-24T10:08:48.830Z,23.45
2018-02-24T10:11:17.173Z,23.46
2018-02-24T10:13:45.615Z,23.45
2018-02-24T10:16:14.739Z,23.46
2018-02-24T10:18:43.047Z,23.45
2018-02-24T10:21:11.343Z,23.45
2018-02-24T10:23:39.642Z,23.46
2018-02-24T10:26:07.945Z,23.45
2018-02-24T10:28:36.250Z,23.45
2018-02-24T10:31:04.542Z,23.44
2018-02-24T10:33:32.848Z,23.44
2018-02-24T10:36:01.155Z,23.44
2018-02-24T10:38:29.448Z,23.44
2018-02-24T10:40:57.743Z,23.44
2018-02-24T10:43:26.018Z,23.43
2018-02-24T10:45:54.306Z,23.43
2018-02-24T10:48:22.615Z,23.42
2018-02-24T10:50:50.938Z,23.41
2018-02-24T10:53:19.233Z,23.41
2018-02-24T10:55:47.537Z,23.40
2018-02-24T10:58:15.842Z,23.39
2018-02-24T11:00:44.226Z,23.39
2018-02-24T11:03:12.526Z,23.39
2018-02-24T11:05:41.774Z,23.38
2018-02-24T11:08:10.075Z,23.38
2018-02-24T11:10:38.371Z,23.37
2018-02-24T11:13:06.686Z,23.36
2018-02-24T11:15:34.963Z,23.36
2018-02-24T11:18:03.350Z,23.36
2018-02-24T11:20:32.358Z,23.36
2018-02-24T11:23:00.723Z,23.35
2018-02-24T11:25:29.168Z,23.35
2018-02-24T11:27:57.465Z,23.35
2018-02-24T11:30:25.764Z,23.35
2018-02-24T11:32:54.037Z,23.34
2018-02-24T11:35:22.347Z,23.34
2018-02-24T11:37:50.693Z,23.34
2018-02-24T11:40:18.982Z,23.33
2018-02-24T11:42:47.093Z,23.33
2018-02-24T11:45:15.374Z,23.33
2018-02-24T11:47:43.695Z,23.33
2018-02-24T11:50:12.005Z,23.32
2018-02-24T11:52:40.497Z,23.33
2018-02-24T11:55:08.782Z,23.31
2018-02-24T11:57:37.086Z,23.31
2018-02-24T12:00:05.412Z,23.31
2018-02-24T12:02:33.718Z,23.31
2018-02-24T12:05:02.002Z,23.30
2018-02-24T12:07:30.321Z,23.31
2018-02-24T12:09:58.418Z,23.31
2018-02-24T12:12:26.696Z,23.30
2018-02-24T12:14:54.967Z,23.31
2018-02-24T12:17:23.326Z,23.31
2018-02-24T12:19:51.698Z,23.30
2018-02-24T12:22:20.056Z,23.31
2018-02-24T12:24:48.346Z,23.30
2018-02-24T12:27:16.630Z,23.31
2018-02-24T12:29:44.910Z,23.31
2018-02-24T12:32:13.214Z,23.30
2018-02-24T12:34:41.498Z,23.29
2018-02-24T12:37:09.800Z,23.30
2018-02-24T12:39:38.110Z,23.29
2018-02-24T12:42:06.406Z,23.29
2018-02-24T12:44:34.524Z,23.29
2018-02-24T12:47:02.618Z,23.29
2018-02-24T12:49:30.750Z,23.28
2018-02-24T12:51:59.066Z,23.28
2018-02-24T12:54:27.362Z,23.27
2018-02-24T12:56:55.637Z,23.26
2018-02-24T12:59:23.940Z,23.26
2018-02-24T13:01:52.247Z,23.26
2018-02-24T13:04:20.555Z,23.24
2018-02-24T13:06:48.882Z,23.25
2018-02-24T13:09:17.163Z,23.24
2018-02-24T13:11:45.457Z,23.24
2018-02-24T13:14:13.749Z,23.23
2018-02-24T13:16:42.039Z,23.24
2018-02-24T13:19:10.331Z,23.23
2018-02-24T13:21:38.610Z,23.23
2018-02-24T13:24:06.754Z,23.22
2018-02-24T13:26:35.030Z,23.22
2018-02-24T13:29:03.321Z,23.23
2018-02-24T13:31:31.421Z,23.22
2018-02-24T13:33:59.728Z,23.22
2018-02-24T13:36:27.893Z,23.22
2018-02-24T13:38:56.010Z,23.22
2018-02-24T13:41:24.341Z,23.21
2018-02-24T13:43:52.598Z,23.21
2018-02-24T13:46:20.876Z,23.22
2018-02-24T13:48:49.163Z,23.22
2018-02-24T13:51:17.522Z,23.21
2018-02-24T13:53:45.813Z,23.22
2018-02-24T13:56:14.098Z,23.22
2018-02-24T13:58:42.402Z,23.21
2018-02-24T14:01:10.710Z,23.21
2018-02-24T14:03:39.038Z,23.20
2018-02-24T14:06:07.318Z,23.20
2018-02-24T14:08:35.608Z,23.20
2018-02-24T14:11:03.913Z,23.21
2018-02-24T14:13:32.205Z,23.21
2018-02-24T14:16:00.476Z,23.22
2018-02-24T14:18:28.769Z,23.22
2018-02-24T14:20:57.054Z,23.23
2018-02-24T14:23:25.369Z,23.23
2018-02-24T14:25:53.693Z,23.24
2018-02-24T14:28:22.006Z,23.23
2018-02-24T14:30:51.075Z,23.23
2018-02-24T14:33:19.510Z,23.22
2018-02-24T14:35:47.796Z,23.21
2018-02-24T14:38:16.137Z,23.22
2018-02-24T14:40:44.429Z,23.21
2018-02-24T14:43:12.740Z,23.21
2018-02-24T14:45:41.064Z,23.19
2018-02-24T14:48:09.354Z,23.18
2018-02-24T14:50:37.718Z,23.18
2018-02-24T14:53:06.014Z,23.16
2018-02-24T14:55:34.319Z,23.15
2018-02-24T14:58:02.643Z,23.14
2018-02-24T15:00:30.923Z,23.14
2018-02-24T15:02:59.203Z,23.13
2018-02-24T15:05:27.527Z,23.12
2018-02-24T15:07:55.664Z,23.12
2018-02-24T15:10:23.710Z,23.11
2018-02-24T15:12:52.010Z,23.11
2018-02-24T15:15:20.323Z,23.10
2018-02-24T15:17:48.460Z,23.10
2018-02-24T15:20:16.549Z,23.09
2018-02-24T15:22:44.839Z,23.09
2018-02-24T15:25:12.932Z,23.08
2018-02-24T15:27:41.047Z,23.08
2018-02-24T15:30:09.334Z,23.08
2018-02-24T15:32:37.432Z,23.07
2018-02-24T15:35:05.721Z,23.06
2018-02-24T15:37:34.042Z,23.07
2018-02-24T15:40:02.334Z,23.06
2018-02-24T15:42:30.627Z,23.06
2018-02-24T15:44:58.933Z,23.05
2018-02-24T15:47:27.218Z,23.06
2018-02-24T15:49:55.373Z,23.06
2018-02-24T15:55:06.383Z,23.05
2018-02-24T15:57:34.705Z,23.04
2018-02-24T16:00:02.998Z,23.04
2018-02-24T16:02:31.306Z,23.04
2018-02-24T16:04:59.595Z,23.04
2018-02-24T16:07:27.896Z,23.03
2018-02-24T16:09:56.227Z,23.03
2018-02-24T16:12:24.373Z,23.04
2018-02-24T16:14:52.698Z,23.04
2018-02-24T16:17:20.992Z,23.04
2018-02-24T16:19:49.282Z,23.05
2018-02-24T16:22:17.593Z,23.04
2018-02-24T16:24:45.721Z,23.05
2018-02-24T16:27:14.041Z,23.04
2018-02-24T16:29:42.362Z,23.05
2018-02-24T16:32:10.661Z,23.04
2018-02-24T16:34:38.977Z,23.03
2018-02-24T16:37:07.272Z,23.04
2018-02-24T16:39:35.581Z,23.04
2018-02-24T16:42:03.898Z,23.04
2018-02-24T16:44:32.293Z,23.04
2018-02-24T16:47:00.606Z,23.04
2018-02-24T16:49:28.908Z,23.04
2018-02-24T16:51:57.255Z,23.04
2018-02-24T16:54:25.566Z,23.04
2018-02-24T16:56:54.539Z,23.04
2018-02-24T16:59:22.844Z,23.05
2018-02-24T17:01:51.148Z,23.03
2018-02-24T17:04:19.445Z,23.03
2018-02-24T17:06:47.761Z,23.04
2018-02-24T17:09:16.973Z,23.03
2018-02-24T17:11:45.351Z,23.03
2018-02-24T17:14:13.896Z,23.03
2018-02-24T17:16:42.373Z,23.03
2018-02-24T17:19:10.670Z,23.04
2018-02-24T17:21:38.970Z,23.03
2018-02-24T17:24:07.269Z,23.03
2018-02-24T17:26:35.558Z,23.03
2018-02-24T17:29:03.865Z,23.03
2018-02-24T17:31:32.179Z,23.03
2018-02-24T17:34:00.499Z,23.04
2018-02-24T17:36:28.827Z,23.04
2018-02-24T17:38:56.956Z,23.05
2018-02-24T17:41:26.951Z,23.04
2018-02-24T17:43:55.246Z,23.05
2018-02-24T17:46:23.792Z,23.06
2018-02-24T17:48:52.113Z,23.07
2018-02-24T17:51:20.407Z,23.07
2018-02-24T17:53:48.713Z,23.08
2018-02-24T17:56:17.018Z,23.10
2018-02-24T17:59:07.495Z,23.11
2018-02-24T18:01:35.834Z,23.12
2018-02-24T18:04:03.738Z,23.14
2018-02-24T18:06:32.078Z,23.15
2018-02-24T18:09:00.148Z,23.15
2018-02-24T18:11:28.467Z,23.17
2018-02-24T18:13:56.779Z,23.17
2018-02-24T18:16:25.890Z,23.17
2018-02-24T18:18:56.240Z,23.17
2018-02-24T18:21:24.775Z,23.18
2018-02-24T18:23:53.272Z,23.18
2018-02-24T18:26:21.581Z,23.19
2018-02-24T18:28:49.891Z,23.19
2018-02-24T18:31:18.190Z,23.20
2018-02-24T18:33:46.470Z,23.20
2018-02-24T18:36:14.775Z,23.21
2018-02-24T18:38:43.078Z,23.23
2018-02-24T18:41:11.378Z,23.26
2018-02-24T18:43:40.294Z,23.27
2018-02-24T18:46:08.407Z,23.27
2018-02-24T18:48:36.494Z,23.27
2018-02-24T18:51:04.783Z,23.28
2018-02-24T18:53:33.081Z,23.29
2018-02-24T18:56:01.565Z,23.29
2018-02-24T18:58:29.881Z,23.32
2018-02-24T19:00:58.166Z,23.34
2018-02-24T19:03:26.443Z,23.35
2018-02-24T19:05:54.806Z,23.35
2018-02-24T19:08:23.056Z,23.35
2018-02-24T19:10:51.367Z,23.34
2018-02-24T19:13:19.650Z,23.34
2018-02-24T19:15:47.942Z,23.34
2018-02-24T19:18:16.266Z,23.35
2018-02-24T19:20:44.358Z,23.34
2018-02-24T19:23:12.643Z,23.35
2018-02-24T19:25:40.725Z,23.35
2018-02-24T19:28:09.021Z,23.35
2018-02-24T19:30:37.168Z,23.36
2018-02-24T19:33:05.438Z,23.36
2018-02-24T19:35:33.710Z,23.37
2018-02-24T19:38:02.007Z,23.38
2018-02-24T19:40:30.291Z,23.36
2018-02-24T19:42:58.604Z,23.35
2018-02-24T19:45:26.918Z,23.34
2018-02-24T19:47:55.252Z,23.33
2018-02-24T19:50:23.534Z,23.32
2018-02-24T19:52:51.954Z,23.34
2018-02-24T19:55:20.437Z,23.34
2018-02-24T19:57:48.836Z,23.33
2018-02-24T20:00:17.259Z,23.32
2018-02-24T20:02:45.804Z,23.30
2018-02-24T20:05:14.234Z,23.29
2018-02-24T20:07:42.932Z,23.27
2018-02-24T20:10:11.229Z,23.27
2018-02-24T20:12:41.097Z,23.26
2018-02-24T20:15:09.401Z,23.25
2018-02-24T20:17:37.698Z,23.23
2018-02-24T20:20:06.003Z,23.23
2018-02-24T20:22:34.287Z,23.22
2018-02-24T20:25:02.590Z,23.21
2018-02-24T20:27:30.907Z,23.21
2018-02-24T20:29:59.196Z,23.20
2018-02-24T20:32:27.497Z,23.19
2018-02-24T20:34:55.846Z,23.19
2018-02-24T20:37:24.159Z,23.17
2018-02-24T20:39:52.578Z,23.17
2018-02-24T20:42:21.196Z,23.17
2018-02-24T20:44:49.567Z,23.17
2018-02-24T20:47:17.860Z,23.16
2018-02-24T20:49:46.175Z,23.16
2018-02-24T20:52:14.271Z,23.16
2018-02-24T20:54:42.410Z,23.15
2018-02-24T20:57:10.723Z,23.15
2018-02-24T20:59:39.007Z,23.14
2018-02-24T21:02:07.302Z,23.14
2018-02-24T21:04:35.585Z,23.13
2018-02-24T21:07:03.721Z,23.13
2018-02-24T21:09:32.017Z,23.13
2018-02-24T21:12:00.321Z,23.12
2018-02-24T21:14:28.641Z,23.12
2018-02-24T21:16:56.939Z,23.12
2018-02-24T21:19:25.234Z,23.12
2018-02-24T21:21:53.551Z,23.11
2018-02-24T21:24:22.006Z,23.11
2018-02-24T21:26:50.306Z,23.10
2018-02-24T21:29:18.581Z,23.08
2018-02-24T21:31:46.861Z,23.10
2018-02-24T21:34:15.149Z,23.10
2018-02-24T21:36:43.454Z,23.09
2018-02-24T21:39:11.734Z,23.09
2018-02-24T21:41:40.061Z,23.09
2018-02-24T21:44:08.413Z,23.08
2018-02-24T21:46:36.705Z,23.08
2018-02-24T21:49:05.010Z,23.07
2018-02-24T21:51:33.300Z,23.07
2018-02-24T21:54:01.591Z,23.07
2018-02-24T21:56:29.726Z,23.06
2018-02-24T21:58:58.018Z,23.06
2018-02-24T22:01:26.333Z,23.05
2018-02-24T22:03:54.638Z,23.05
2018-02-24T22:06:22.940Z,23.05
2018-02-24T22:08:51.230Z,23.05
2018-02-24T22:11:19.527Z,23.05
2018-02-24T22:13:47.844Z,23.04
2018-02-24T22:16:16.993Z,23.04
2018-02-24T22:18:45.304Z,23.04
2018-02-24T22:21:13.596Z,23.04
2018-02-24T22:23:41.879Z,23.04
2018-02-24T22:26:10.199Z,23.03
2018-02-24T22:28:38.502Z,23.03
2018-02-24T22:31:06.598Z,23.03
2018-02-24T22:33:34.891Z,23.02
2018-02-24T22:36:03.198Z,23.03
2018-02-24T22:38:31.512Z,23.02
2018-02-24T22:40:59.833Z,23.01
2018-02-24T22:43:28.125Z,23.01
2018-02-24T22:45:56.424Z,23.00
2018-02-24T22:48:30.202Z,23.01
2018-02-24T22:50:58.511Z,23.01
2018-02-24T22:53:26.794Z,23.00
2018-02-24T22:55:55.084Z,23.00
2018-02-24T22:58:23.805Z,22.99
2018-02-24T23:00:52.100Z,23.00
2018-02-24T23:03:20.391Z,22.99
2018-02-24T23:05:48.784Z,22.99
2018-02-24T23:08:17.077Z,22.99
2018-02-24T23:10:45.363Z,22.99
2018-02-24T23:13:13.644Z,22.99
2018-02-24T23:15:41.922Z,22.99
2018-02-24T23:18:10.206Z,23.00
2018-02-24T23:20:38.490Z,22.99
2018-02-24T23:23:06.766Z,22.99
2018-02-24T23:25:35.062Z,23.00
2018-02-24T23:28:03.351Z,23.00
2018-02-24T23:30:31.634Z,23.00
2018-02-24T23:32:59.931Z,23.00
2018-02-24T23:35:28.230Z,23.00
2018-02-24T23:37:56.538Z,23.00
2018-02-24T23:40:24.639Z,23.00
2018-02-24T23:42:52.919Z,23.00
2018-02-24T23:45:21.205Z,23.01
2018-02-24T23:47:49.325Z,23.00
2018-02-24T23:50:17.445Z,23.00
2018-02-24T23:52:45.550Z,23.00
2018-02-24T23:55:13.665Z,23.01
2018-02-24T23:57:41.966Z,23.01
